Time;durP1;ratioP1;P1;durP2;ratioP2;P2;SDS_P1;SDS_P2;PMS_P1;PMS_P2;Temp;Humidity;BMP_temperature;BMP_pressure;BME280_temperature;BME280_humidity;BME280_pressure;Samples;Min_cycle;Max_cycle;Signal;HPM_P1;HPM_P2
2022/05/01 00:00:46;;;;;;;4.38;0.70;;;17.40;99.90;;;;;;5035239;28;20386;-71
2022/05/01 00:03:34;;;;;;;3.42;0.50;;;17.60;99.90;;;;;;5035436;28;20033;-71
2022/05/01 00:06:04;;;;;;;3.40;0.30;;;17.80;99.90;;;;;;5035521;28;20079;-71
2022/05/01 00:08:35;;;;;;;3.78;0.40;;;17.70;99.90;;;;;;5019814;28;20032;-71
2022/05/01 00:11:02;;;;;;;10.05;0.80;;;17.80;99.90;;;;;;5015156;28;20068;-71
2022/05/01 00:13:30;;;;;;;1.98;0.50;;;17.90;99.90;;;;;;5015297;28;20053;-71
2022/05/01 00:15:57;;;;;;;2.63;0.50;;;17.90;99.90;;;;;;5015518;28;20096;-71
2022/05/01 00:18:25;;;;;;;3.63;0.70;;;17.70;99.90;;;;;;5014484;28;20037;-71
2022/05/01 00:20:52;;;;;;;2.58;0.40;;;17.70;99.90;;;;;;5014729;28;20022;-71
2022/05/01 00:23:20;;;;;;;2.17;0.30;;;18.20;99.90;;;;;;5015876;28;20025;-71
2022/05/01 00:25:47;;;;;;;3.05;0.60;;;18.20;99.90;;;;;;4997822;28;20022;-71
2022/05/01 00:28:15;;;;;;;3.55;0.60;;;18.50;99.90;;;;;;5018312;28;20033;-71
2022/05/01 00:30:43;;;;;;;2.13;0.43;;;18.50;99.90;;;;;;5015912;28;20061;-71
2022/05/01 00:38:41;;;;;;;2.75;0.32;;;18.30;99.90;;;;;;5015403;28;20033;-72
2022/05/01 00:41:08;;;;;;;1.55;0.60;;;18.30;99.90;;;;;;5015021;28;20030;-71
2022/05/01 00:44:15;;;;;;;6.93;0.50;;;18.20;99.90;;;;;;4997812;28;20026;-71
2022/05/01 00:46:53;;;;;;;2.63;0.40;;;18.10;99.90;;;;;;4914317;29;20432;-71
2022/05/01 00:49:23;;;;;;;4.40;0.82;;;18.10;99.90;;;;;;4930271;29;20035;-71
2022/05/01 00:51:58;;;;;;;3.80;0.80;;;18.30;99.90;;;;;;4982453;28;20042;-71
2022/05/01 00:54:28;;;;;;;1.77;0.60;;;18.60;99.90;;;;;;5014772;28;20518;-71
2022/05/01 00:56:59;;;;;;;2.60;0.70;;;18.60;99.90;;;;;;5009982;28;20034;-71
2022/05/01 00:59:28;;;;;;;2.08;0.47;;;18.60;99.90;;;;;;5013468;28;20083;-71
2022/05/01 01:01:55;;;;;;;2.45;0.60;;;18.70;99.90;;;;;;5014474;28;20022;-71
2022/05/01 01:04:24;;;;;;;2.80;0.70;;;19.00;99.90;;;;;;5012898;28;20021;-71
2022/05/01 01:06:51;;;;;;;1.75;0.30;;;19.30;99.90;;;;;;4962974;28;20038;-71
2022/05/01 01:09:19;;;;;;;1.75;0.55;;;19.40;99.90;;;;;;4983598;28;20056;-71
2022/05/01 01:11:47;;;;;;;4.03;0.75;;;19.30;99.90;;;;;;4996290;28;20390;-71
2022/05/01 01:14:15;;;;;;;2.67;0.60;;;19.40;99.90;;;;;;5014275;28;20030;-71
2022/05/01 01:16:44;;;;;;;2.45;0.40;;;19.80;99.90;;;;;;4996481;28;20029;-71
2022/05/01 01:19:11;;;;;;;3.28;0.55;;;20.00;99.90;;;;;;4990326;28;20030;-71
2022/05/01 01:21:38;;;;;;;1.45;0.40;;;19.80;99.90;;;;;;5008339;28;20026;-72
2022/05/01 01:24:10;;;;;;;3.65;0.38;;;19.90;99.90;;;;;;5014371;28;20025;-71
2022/05/01 01:26:38;;;;;;;2.50;0.65;;;19.80;99.90;;;;;;5014426;28;20029;-71
2022/05/01 01:31:40;;;;;;;4.40;0.60;;;20.10;99.90;;;;;;5014119;28;20512;-71
2022/05/01 01:31:55;;;;;;;3.13;0.70;;;19.90;99.90;;;;;;5013466;28;20437;-72
2022/05/01 01:34:27;;;;;;;3.35;0.47;;;19.90;99.90;;;;;;5012423;28;20029;-71
2022/05/01 01:36:55;;;;;;;4.97;0.90;;;19.80;99.90;;;;;;5012962;28;20080;-72
2022/05/01 01:39:25;;;;;;;3.10;0.75;;;20.00;99.90;;;;;;5011276;28;20026;-72
2022/05/01 01:41:55;;;;;;;4.97;0.73;;;20.50;99.90;;;;;;5013804;28;20022;-71
2022/05/01 01:44:24;;;;;;;5.60;0.90;;;20.50;99.90;;;;;;5013833;28;20037;-71
2022/05/01 01:46:51;;;;;;;3.88;0.55;;;20.60;99.90;;;;;;5013627;28;20033;-72
2022/05/01 01:49:18;;;;;;;4.47;0.80;;;20.70;99.90;;;;;;5007906;28;20025;-72
2022/05/01 01:51:46;;;;;;;2.08;0.50;;;21.00;99.90;;;;;;5014137;28;20044;-72
2022/05/01 01:54:13;;;;;;;2.95;0.55;;;21.20;99.90;;;;;;5013566;28;20025;-72
2022/05/01 01:56:43;;;;;;;4.38;0.45;;;21.00;99.90;;;;;;5013524;28;20029;-72
2022/05/01 01:59:11;;;;;;;3.05;0.55;;;21.00;99.90;;;;;;5013673;28;20030;-71
2022/05/01 02:01:45;;;;;;;3.30;0.70;;;21.20;99.90;;;;;;5013557;28;20022;-72
2022/05/01 02:04:12;;;;;;;4.28;1.55;;;21.40;99.90;;;;;;4996057;28;20018;-72
2022/05/01 02:06:39;;;;;;;4.35;0.75;;;22.00;99.90;;;;;;5013717;28;20068;-72
2022/05/01 02:09:07;;;;;;;2.85;0.73;;;21.70;99.90;;;;;;5011793;28;20026;-72
2022/05/01 02:11:37;;;;;;;5.35;0.70;;;21.70;99.90;;;;;;5013436;28;20046;-72
2022/05/01 02:14:05;;;;;;;2.35;0.50;;;22.60;99.90;;;;;;5013550;28;20398;-72
2022/05/01 02:16:33;;;;;;;3.13;0.68;;;22.40;99.90;;;;;;4994933;28;20092;-72
2022/05/01 02:19:01;;;;;;;4.95;0.68;;;21.80;99.90;;;;;;5013342;28;20105;-71
2022/05/01 02:21:37;;;;;;;4.88;0.68;;;21.90;99.90;;;;;;4995922;28;20026;-72
2022/05/01 02:24:07;;;;;;;2.45;0.82;;;22.40;99.90;;;;;;5013223;28;20076;-72
2022/05/01 02:26:35;;;;;;;6.35;0.60;;;22.20;99.90;;;;;;4995722;28;20033;-72
2022/05/01 02:29:10;;;;;;;4.97;0.63;;;22.50;99.90;;;;;;5013481;28;20084;-72
2022/05/01 02:31:41;;;;;;;4.63;0.77;;;22.90;99.90;;;;;;5017059;28;20492;-72
2022/05/01 02:34:10;;;;;;;3.17;0.47;;;23.00;99.90;;;;;;4976358;28;20454;-72
2022/05/01 02:36:38;;;;;;;3.88;0.80;;;23.10;99.90;;;;;;4993797;28;20033;-71
2022/05/01 02:39:06;;;;;;;4.22;0.85;;;23.70;99.90;;;;;;4993261;28;20030;-72
2022/05/01 02:41:34;;;;;;;3.00;0.50;;;22.90;99.90;;;;;;5008157;28;20120;-72
2022/05/01 02:44:01;;;;;;;6.05;0.93;;;22.70;99.90;;;;;;5012899;28;20032;-72
2022/05/01 02:46:28;;;;;;;4.72;0.60;;;22.10;99.90;;;;;;4995530;28;20022;-72
2022/05/01 02:48:56;;;;;;;9.25;1.35;;;22.20;99.90;;;;;;5013004;28;20026;-72
2022/05/01 02:51:23;;;;;;;4.80;0.70;;;21.80;99.90;;;;;;4995549;28;20423;-72
2022/05/01 02:53:50;;;;;;;5.88;1.35;;;22.30;99.90;;;;;;5013265;28;20033;-72
2022/05/01 02:56:18;;;;;;;4.57;0.60;;;22.30;99.90;;;;;;5013174;28;20463;-72
2022/05/01 02:58:45;;;;;;;3.38;0.75;;;22.90;99.90;;;;;;5012859;28;20475;-73
2022/05/01 03:01:13;;;;;;;5.35;1.17;;;22.20;99.90;;;;;;5013972;28;20037;-72
2022/05/01 03:03:40;;;;;;;4.38;1.10;;;23.20;99.90;;;;;;4999144;28;20030;-73
2022/05/01 03:06:08;;;;;;;5.72;0.85;;;24.10;99.90;;;;;;5016809;28;20475;-73
2022/05/01 03:08:36;;;;;;;5.68;1.08;;;24.40;99.90;;;;;;4996958;28;20478;-73
2022/05/01 03:11:03;;;;;;;5.63;0.98;;;24.20;99.90;;;;;;5013802;28;20405;-72
2022/05/01 03:13:30;;;;;;;5.30;1.45;;;23.10;99.90;;;;;;5016502;28;20022;-73
2022/05/01 03:15:58;;;;;;;4.68;1.00;;;23.00;99.90;;;;;;5016721;28;20509;-72
2022/05/01 03:23:57;;;;;;;5.35;1.00;;;22.40;99.90;;;;;;5016507;28;20108;-73
2022/05/01 03:26:25;;;;;;;7.53;1.13;;;22.00;99.90;;;;;;5018986;28;20076;-73
2022/05/01 03:28:52;;;;;;;3.58;1.20;;;22.30;99.90;;;;;;5016333;28;20029;-73
2022/05/01 03:31:20;;;;;;;5.35;0.88;;;22.60;99.90;;;;;;5016392;28;20105;-72
2022/05/01 03:33:47;;;;;;;5.05;1.10;;;22.60;99.90;;;;;;4998966;28;20420;-72
2022/05/01 03:36:15;;;;;;;4.13;1.02;;;22.90;99.90;;;;;;4998957;28;20049;-73
2022/05/01 03:38:44;;;;;;;5.35;0.90;;;23.10;99.90;;;;;;5016631;28;20022;-73
2022/05/01 03:41:14;;;;;;;6.13;1.13;;;22.90;99.90;;;;;;4998816;28;20026;-72
2022/05/01 03:43:42;;;;;;;4.43;0.90;;;22.30;99.90;;;;;;4998831;28;20030;-73
2022/05/01 03:46:10;;;;;;;4.60;0.98;;;22.30;99.90;;;;;;5016524;28;20410;-73
2022/05/01 03:48:37;;;;;;;5.68;1.15;;;22.60;99.90;;;;;;5015828;28;20049;-72
2022/05/01 03:51:05;;;;;;;8.25;1.85;;;22.20;99.90;;;;;;5015693;28;20029;-72
2022/05/01 03:53:32;;;;;;;4.22;0.95;;;22.10;99.90;;;;;;5014957;28;20057;-72
2022/05/01 03:56:00;;;;;;;10.00;1.10;;;22.40;99.90;;;;;;5014634;28;20070;-72
2022/05/01 03:58:29;;;;;;;4.65;0.85;;;22.10;99.90;;;;;;5016264;28;20401;-72
2022/05/01 04:00:57;;;;;;;6.18;0.98;;;22.60;99.90;;;;;;4994910;28;20029;-72
2022/05/01 04:03:25;;;;;;;6.65;1.10;;;22.60;99.90;;;;;;4993487;28;20037;-73
2022/05/01 04:05:53;;;;;;;7.07;1.02;;;22.50;99.90;;;;;;5013509;28;20049;-72
2022/05/01 04:08:22;;;;;;;5.75;0.93;;;22.30;99.90;;;;;;5015784;28;20038;-71
2022/05/01 04:10:49;;;;;;;8.13;1.20;;;22.30;99.90;;;;;;5013189;28;20037;-72
2022/05/01 04:13:17;;;;;;;10.32;1.25;;;22.10;99.90;;;;;;5033369;28;20061;-71
2022/05/01 04:15:45;;;;;;;9.20;1.55;;;22.10;99.90;;;;;;5002286;28;20029;-71
2022/05/01 04:18:12;;;;;;;8.88;1.17;;;21.80;99.90;;;;;;5012398;28;20069;-71
2022/05/01 04:20:39;;;;;;;9.15;1.30;;;22.10;99.90;;;;;;4992651;28;20103;-71
2022/05/01 04:23:08;;;;;;;6.05;1.20;;;22.00;99.90;;;;;;5013512;28;20026;-72
2022/05/01 04:25:36;;;;;;;9.57;1.20;;;21.80;99.90;;;;;;5016542;28;20455;-72
2022/05/01 04:28:12;;;;;;;5.95;1.25;;;21.60;99.90;;;;;;5013957;28;20355;-70
2022/05/01 04:30:40;;;;;;;6.47;1.10;;;21.50;99.90;;;;;;5008287;28;20026;-70
2022/05/01 04:33:15;;;;;;;5.20;0.77;;;21.20;99.90;;;;;;5010887;28;20030;-70
2022/05/01 04:35:45;;;;;;;5.20;0.98;;;21.10;99.90;;;;;;5001408;28;20053;-71
2022/05/01 04:38:13;;;;;;;6.35;1.15;;;21.30;99.90;;;;;;5008750;28;20034;-71
2022/05/01 04:40:52;;;;;;;4.20;0.90;;;21.10;99.90;;;;;;4995818;28;20029;-71
2022/05/01 04:43:22;;;;;;;10.00;1.13;;;21.10;99.90;;;;;;4998340;28;20022;-72
2022/05/01 04:45:51;;;;;;;6.47;0.77;;;21.00;99.90;;;;;;4988629;28;20153;-70
2022/05/01 04:48:26;;;;;;;9.77;1.20;;;21.00;99.90;;;;;;5012769;28;20083;-71
2022/05/01 04:50:53;;;;;;;6.57;1.08;;;21.00;99.90;;;;;;5009462;28;20482;-70
2022/05/01 04:53:22;;;;;;;5.65;1.17;;;21.10;99.90;;;;;;5006274;28;20022;-70
2022/05/01 04:55:53;;;;;;;5.78;1.05;;;21.00;99.90;;;;;;5004316;28;20389;-70
2022/05/01 04:58:21;;;;;;;8.32;1.83;;;20.90;99.90;;;;;;4987061;28;20038;-70
2022/05/01 05:00:48;;;;;;;9.70;1.48;;;21.00;99.90;;;;;;5005011;28;20029;-70
2022/05/01 05:03:16;;;;;;;5.72;1.30;;;21.00;99.90;;;;;;5001515;28;20021;-70
2022/05/01 05:05:43;;;;;;;7.53;1.00;;;20.80;99.90;;;;;;5006871;28;20041;-71
2022/05/01 05:10:56;;;;;;;6.55;1.05;;;20.80;99.90;;;;;;5005761;28;20078;-71
2022/05/01 05:13:27;;;;;;;12.75;1.20;;;20.90;99.90;;;;;;5006704;28;20026;-71
2022/05/01 05:15:58;;;;;;;8.40;0.90;;;20.80;99.90;;;;;;4984236;28;20038;-71
2022/05/01 05:18:26;;;;;;;7.72;1.52;;;20.80;99.90;;;;;;4991616;28;20120;-71
2022/05/01 05:20:53;;;;;;;7.85;1.80;;;20.80;99.90;;;;;;5012301;28;20087;-72
2022/05/01 05:23:20;;;;;;;8.20;1.13;;;20.70;99.90;;;;;;5006647;28;20034;-72
2022/05/01 05:25:47;;;;;;;5.50;0.68;;;20.70;99.90;;;;;;5019350;28;20053;-72
2022/05/01 05:28:15;;;;;;;9.35;1.17;;;20.70;99.90;;;;;;5034268;28;20025;-72
2022/05/01 05:30:42;;;;;;;6.57;1.15;;;20.60;99.90;;;;;;4988454;28;20038;-72
2022/05/01 05:33:09;;;;;;;7.55;1.58;;;20.60;99.90;;;;;;5008741;28;20029;-72
2022/05/01 05:35:37;;;;;;;4.13;0.68;;;20.60;99.90;;;;;;5020170;28;20526;-72
2022/05/01 05:38:04;;;;;;;8.55;1.40;;;20.50;99.90;;;;;;5016836;28;20014;-72
2022/05/01 05:40:32;;;;;;;5.18;0.77;;;20.60;99.90;;;;;;5013844;28;20025;-72
2022/05/01 05:42:59;;;;;;;10.73;1.10;;;20.60;99.90;;;;;;4997754;28;20034;-72
2022/05/01 05:45:26;;;;;;;4.80;0.77;;;20.50;99.90;;;;;;5019045;28;20100;-72
2022/05/01 05:47:53;;;;;;;6.95;1.40;;;20.30;99.90;;;;;;5020071;28;20035;-72
2022/05/01 05:50:21;;;;;;;3.95;0.70;;;20.30;99.90;;;;;;5006911;28;20449;-72
2022/05/01 05:52:48;;;;;;;6.30;0.85;;;20.20;99.90;;;;;;4994840;28;20038;-72
2022/05/01 05:55:15;;;;;;;6.22;0.80;;;20.10;99.90;;;;;;5025153;28;20033;-72
2022/05/01 05:57:43;;;;;;;8.15;0.80;;;20.10;99.90;;;;;;5027267;28;20029;-72
2022/05/01 06:00:10;;;;;;;5.32;0.85;;;20.00;99.90;;;;;;5023330;28;20044;-73
2022/05/01 06:02:38;;;;;;;5.75;0.95;;;20.10;99.90;;;;;;5017853;28;20032;-72
2022/05/01 06:05:06;;;;;;;10.30;1.73;;;20.10;99.90;;;;;;4995265;28;20032;-72
2022/05/01 06:07:33;;;;;;;5.40;1.08;;;20.10;99.90;;;;;;5017403;28;20037;-72
2022/05/01 06:10:01;;;;;;;10.00;1.40;;;20.10;99.90;;;;;;5021991;28;20073;-72
2022/05/01 06:12:28;;;;;;;5.13;0.95;;;20.00;99.90;;;;;;5013453;28;20018;-72
2022/05/01 06:14:55;;;;;;;7.63;1.40;;;20.00;99.90;;;;;;5026528;28;20029;-72
2022/05/01 06:17:23;;;;;;;16.83;1.98;;;20.10;99.90;;;;;;5029527;28;20411;-72
2022/05/01 06:19:50;;;;;;;68.10;4.10;;;20.10;99.90;;;;;;5015158;28;20029;-72
2022/05/01 06:22:17;;;;;;;27.13;2.67;;;20.00;99.90;;;;;;5016166;28;20037;-72
2022/05/01 06:24:47;;;;;;;13.50;2.22;;;20.00;99.90;;;;;;5013204;28;20037;-72
2022/05/01 06:27:17;;;;;;;8.65;1.70;;;20.00;99.90;;;;;;4995699;28;20037;-72
2022/05/01 06:29:44;;;;;;;6.70;0.98;;;19.90;99.90;;;;;;5006762;28;20018;-72
2022/05/01 06:32:15;;;;;;;8.70;1.10;;;20.00;99.90;;;;;;5012040;28;20022;-72
2022/05/01 06:34:44;;;;;;;6.45;1.20;;;19.90;99.90;;;;;;5008289;28;20057;-72
2022/05/01 06:37:11;;;;;;;8.70;1.40;;;19.90;99.90;;;;;;5006627;28;20026;-72
2022/05/01 06:39:39;;;;;;;5.55;0.70;;;19.90;99.90;;;;;;5011888;28;20064;-72
2022/05/01 06:42:06;;;;;;;4.55;1.00;;;19.80;99.90;;;;;;5016399;28;20080;-72
2022/05/01 06:44:34;;;;;;;18.88;5.40;;;19.70;99.90;;;;;;5012026;28;20026;-72
2022/05/01 06:47:02;;;;;;;8.90;1.30;;;19.60;99.90;;;;;;5014164;28;20036;-69
2022/05/01 06:49:29;;;;;;;5.22;1.00;;;19.60;99.90;;;;;;5003209;28;20104;-69
2022/05/01 06:51:56;;;;;;;4.60;0.70;;;19.60;99.90;;;;;;5008704;28;20455;-69
2022/05/01 06:54:23;;;;;;;8.93;1.35;;;19.60;99.90;;;;;;5006953;28;20030;-69
2022/05/01 06:56:51;;;;;;;6.78;1.08;;;19.50;99.90;;;;;;4999886;28;20041;-69
2022/05/01 06:59:18;;;;;;;5.28;0.90;;;19.50;99.90;;;;;;5006984;28;20042;-69
2022/05/01 07:01:47;;;;;;;7.00;1.83;;;19.40;99.90;;;;;;5007576;28;20030;-69
2022/05/01 07:04:14;;;;;;;9.30;1.20;;;19.30;99.90;;;;;;5016937;28;20030;-69
2022/05/01 07:06:43;;;;;;;5.40;1.05;;;19.30;99.90;;;;;;5018369;28;20030;-70
2022/05/01 07:09:10;;;;;;;9.38;1.52;;;19.30;99.90;;;;;;5009113;28;20018;-70
2022/05/01 07:11:38;;;;;;;11.13;1.30;;;19.20;99.90;;;;;;5002034;28;20057;-70
2022/05/01 07:14:05;;;;;;;7.40;1.50;;;19.30;99.90;;;;;;5009415;28;20097;-71
2022/05/01 07:16:33;;;;;;;6.40;1.50;;;19.20;99.90;;;;;;5007101;28;20034;-72
2022/05/01 07:19:00;;;;;;;10.45;1.80;;;19.20;99.90;;;;;;5012216;28;20116;-72
2022/05/01 07:21:27;;;;;;;8.20;1.67;;;19.10;99.90;;;;;;5011106;28;20026;-72
2022/05/01 07:23:54;;;;;;;5.30;1.05;;;19.10;99.90;;;;;;5010938;28;20094;-72
2022/05/01 07:26:22;;;;;;;11.15;2.05;;;19.00;99.90;;;;;;4993419;28;20061;-71
2022/05/01 07:28:49;;;;;;;6.45;1.40;;;19.00;99.90;;;;;;5021150;28;20025;-71
2022/05/01 07:31:16;;;;;;;8.15;1.48;;;19.00;99.90;;;;;;5012394;28;20544;-71
2022/05/01 07:33:44;;;;;;;9.30;1.58;;;18.90;99.90;;;;;;5012283;28;20041;-70
2022/05/01 07:36:11;;;;;;;8.10;0.88;;;18.90;99.90;;;;;;5012065;28;20081;-71
2022/05/01 07:38:38;;;;;;;6.47;1.08;;;18.80;99.90;;;;;;5002973;28;20029;-72
2022/05/01 07:41:05;;;;;;;10.70;1.58;;;18.80;99.90;;;;;;5015991;28;20391;-72
2022/05/01 07:43:33;;;;;;;6.32;1.45;;;18.80;99.90;;;;;;5012536;28;20047;-71
2022/05/01 07:46:00;;;;;;;9.95;1.42;;;18.70;99.90;;;;;;5014179;28;20036;-71
2022/05/01 07:48:27;;;;;;;6.40;1.25;;;18.70;99.90;;;;;;5015346;28;20037;-71
2022/05/01 07:50:54;;;;;;;7.10;0.82;;;18.80;99.90;;;;;;5017980;28;20029;-71
2022/05/01 07:53:22;;;;;;;7.30;1.17;;;18.70;99.90;;;;;;5027595;28;20037;-71
2022/05/01 07:55:49;;;;;;;3.65;0.75;;;18.70;99.90;;;;;;5014878;28;20057;-71
2022/05/01 07:58:16;;;;;;;4.95;1.70;;;18.70;99.90;;;;;;5015026;28;20038;-72
2022/05/01 08:00:44;;;;;;;10.88;1.92;;;18.70;99.90;;;;;;4999141;28;20476;-72
2022/05/01 08:05:56;;;;;;;10.82;1.50;;;18.70;99.90;;;;;;5015114;28;20037;-71
2022/05/01 08:08:24;;;;;;;5.93;1.10;;;18.60;99.90;;;;;;5014786;28;20018;-71
2022/05/01 08:10:51;;;;;;;9.70;1.40;;;18.60;99.90;;;;;;5013388;28;20133;-71
2022/05/01 08:13:19;;;;;;;8.50;1.13;;;18.60;99.90;;;;;;5012002;28;20537;-71
2022/05/01 08:15:46;;;;;;;6.20;0.93;;;18.60;99.90;;;;;;5015013;28;20026;-71
2022/05/01 08:21:10;;;;;;;4.72;1.60;;;18.50;99.90;;;;;;5008495;28;20126;-71
2022/05/01 08:23:42;;;;;;;9.65;1.40;;;18.40;99.90;;;;;;5013972;28;20034;-71
2022/05/01 08:26:11;;;;;;;9.13;1.95;;;18.40;99.90;;;;;;5022413;28;20025;-71
2022/05/01 08:28:40;;;;;;;5.45;1.33;;;18.40;99.90;;;;;;5015220;28;20022;-71
2022/05/01 08:31:09;;;;;;;9.50;1.42;;;18.40;99.90;;;;;;5015800;28;20113;-72
2022/05/01 08:33:38;;;;;;;5.93;1.17;;;18.30;99.90;;;;;;5024352;28;20498;-71
2022/05/01 08:36:06;;;;;;;10.27;1.40;;;18.30;99.90;;;;;;5012768;28;20022;-71
2022/05/01 08:38:37;;;;;;;10.57;1.75;;;18.30;99.90;;;;;;5020738;28;20033;-71
2022/05/01 08:41:06;;;;;;;4.90;1.10;;;18.30;99.90;;;;;;5014635;28;20493;-71
2022/05/01 08:43:34;;;;;;;8.18;1.80;;;18.30;99.90;;;;;;5015333;28;20072;-71
2022/05/01 08:46:27;;;;;;;4.72;0.95;;;18.20;99.90;;;;;;5015752;28;20363;-71
2022/05/01 08:49:05;;;;;;;9.50;1.70;;;18.20;99.90;;;;;;5010668;28;20516;-71
2022/05/01 08:51:41;;;;;;;7.38;2.08;;;18.10;99.90;;;;;;5013161;28;20105;-71
2022/05/01 08:54:10;;;;;;;9.18;2.05;;;18.00;99.90;;;;;;5008821;28;20390;-71
2022/05/01 08:56:38;;;;;;;12.98;2.50;;;18.00;99.90;;;;;;5011724;28;20076;-71
2022/05/01 08:59:09;;;;;;;8.13;1.85;;;18.00;99.90;;;;;;5062135;23;20041;-89
2022/05/01 09:01:38;;;;;;;11.15;2.45;;;17.90;99.90;;;;;;5089165;22;20152;-88
2022/05/01 09:06:41;;;;;;;9.88;1.65;;;17.90;99.90;;;;;;5003099;28;20427;-71
2022/05/01 09:09:11;;;;;;;10.15;1.77;;;17.90;99.90;;;;;;5010815;28;20427;-71
2022/05/01 09:14:26;;;;;;;7.55;1.52;;;17.90;99.90;;;;;;5002726;28;20117;-71
2022/05/01 09:17:11;;;;;;;8.30;1.75;;;17.90;99.90;;;;;;5013391;28;20029;-70
2022/05/01 09:19:39;;;;;;;7.10;1.38;;;17.90;99.90;;;;;;5002775;28;20679;-69
2022/05/01 09:22:07;;;;;;;8.55;1.95;;;18.00;99.90;;;;;;5007625;28;20053;-69
2022/05/01 09:24:37;;;;;;;12.13;2.83;;;18.00;99.90;;;;;;5012192;28;20116;-70
2022/05/01 09:27:05;;;;;;;8.13;3.65;;;18.00;99.90;;;;;;5012741;28;20040;-70
2022/05/01 09:29:34;;;;;;;11.82;5.20;;;18.00;99.90;;;;;;5009050;28;20117;-70
2022/05/01 09:32:03;;;;;;;11.27;4.32;;;18.00;99.90;;;;;;5013258;28;20025;-69
2022/05/01 09:34:37;;;;;;;9.93;3.92;;;17.90;99.90;;;;;;4998274;28;20076;-70
2022/05/01 09:37:19;;;;;;;9.65;2.80;;;17.90;99.90;;;;;;5007018;28;20030;-70
2022/05/01 09:39:52;;;;;;;6.88;1.85;;;17.90;99.90;;;;;;5007178;28;20022;-70
2022/05/01 09:42:21;;;;;;;7.70;2.03;;;17.90;99.90;;;;;;5021449;28;20026;-70
2022/05/01 09:45:14;;;;;;;7.80;2.28;;;17.90;99.90;;;;;;5011938;28;20029;-69
2022/05/01 09:47:44;;;;;;;12.73;2.53;;;17.90;99.90;;;;;;5011817;28;20096;-70
2022/05/01 09:50:14;;;;;;;8.73;2.08;;;17.90;99.90;;;;;;5007391;28;20460;-69
2022/05/01 09:52:59;;;;;;;6.35;1.75;;;17.90;99.90;;;;;;5018222;28;20053;-70
2022/05/01 09:55:27;;;;;;;11.15;2.78;;;17.90;99.90;;;;;;5004174;28;20025;-70
2022/05/01 09:58:08;;;;;;;6.78;2.20;;;17.80;99.90;;;;;;5007642;28;20022;-70
2022/05/01 10:00:40;;;;;;;8.93;2.05;;;17.70;99.90;;;;;;5003278;28;20381;-69
2022/05/01 10:03:31;;;;;;;6.95;1.73;;;17.70;99.90;;;;;;5010492;28;20065;-69
2022/05/01 10:06:00;;;;;;;7.28;1.65;;;17.60;99.90;;;;;;5005050;28;20046;-70
2022/05/01 10:08:28;;;;;;;14.40;2.72;;;17.60;99.90;;;;;;5027140;28;20053;-70
2022/05/01 10:11:00;;;;;;;7.05;2.75;;;17.50;99.90;;;;;;5008838;28;20088;-70
2022/05/01 10:13:28;;;;;;;7.72;1.77;;;17.50;99.90;;;;;;5017662;28;20026;-69
2022/05/01 10:15:56;;;;;;;9.13;2.20;;;17.50;99.90;;;;;;5011014;28;20451;-70
2022/05/01 10:18:25;;;;;;;12.70;2.28;;;17.50;99.90;;;;;;5010215;28;20033;-70
2022/05/01 10:20:52;;;;;;;12.65;3.25;;;17.50;99.90;;;;;;5005807;28;20026;-70
2022/05/01 10:23:20;;;;;;;14.20;3.47;;;17.50;99.90;;;;;;5011958;28;20025;-70
2022/05/01 10:26:01;;;;;;;14.75;4.18;;;17.50;99.90;;;;;;5012485;28;20084;-70
2022/05/01 10:28:47;;;;;;;10.77;2.58;;;17.40;99.90;;;;;;5018603;28;20072;-69
2022/05/01 10:34:12;;;;;;;10.20;2.65;;;17.40;99.90;;;;;;4998320;28;20025;-69
2022/05/01 10:36:58;;;;;;;8.02;2.53;;;17.40;99.90;;;;;;5014328;28;20057;-69
2022/05/01 10:39:29;;;;;;;8.32;2.42;;;17.40;99.90;;;;;;5015385;28;20087;-70
2022/05/01 10:41:56;;;;;;;14.13;2.33;;;17.40;99.90;;;;;;5020377;28;20033;-70
2022/05/01 10:44:33;;;;;;;9.82;2.35;;;17.40;99.90;;;;;;5013091;28;20390;-69
2022/05/01 10:47:18;;;;;;;14.38;3.28;;;17.40;99.90;;;;;;5017787;28;20073;-69
2022/05/01 10:49:47;;;;;;;14.23;3.80;;;17.50;99.90;;;;;;5004548;28;20083;-70
2022/05/01 10:52:18;;;;;;;12.80;3.80;;;17.60;99.90;;;;;;5023093;28;20022;-69
2022/05/01 10:54:58;;;;;;;13.30;3.97;;;17.60;99.90;;;;;;5011484;28;20100;-69
2022/05/01 10:57:26;;;;;;;14.55;3.40;;;17.60;99.90;;;;;;5016280;28;20021;-69
2022/05/01 11:00:10;;;;;;;8.50;3.42;;;17.60;99.90;;;;;;5011482;28;20065;-70
2022/05/01 11:02:42;;;;;;;;;;;17.60;99.90;;;;;;5011234;28;20026;-69
2022/05/01 11:05:42;;;;;;;12.98;3.40;;;17.60;99.90;;;;;;5024596;28;19921;-70
2022/05/01 11:08:20;;;;;;;10.27;3.72;;;17.60;99.90;;;;;;5027266;28;20488;-70
2022/05/01 11:10:48;;;;;;;9.98;3.55;;;17.60;99.90;;;;;;5022218;28;20091;-69
2022/05/01 11:13:18;;;;;;;8.60;3.30;;;17.60;99.90;;;;;;5014747;28;20493;-69
2022/05/01 11:15:51;;;;;;;9.73;3.65;;;17.60;99.90;;;;;;5024697;28;20493;-69
2022/05/01 11:19:15;;;;;;;11.13;3.40;;;17.50;99.90;;;;;;5015789;28;20022;-69
2022/05/01 11:21:47;;;;;;;10.07;3.53;;;17.40;99.90;;;;;;5014948;28;20470;-69
2022/05/01 11:24:15;;;;;;;11.90;4.18;;;17.40;99.90;;;;;;5015911;28;20025;-69
2022/05/01 11:27:14;;;;;;;11.15;3.03;;;17.40;99.90;;;;;;5012523;28;20489;-69
2022/05/01 11:30:06;;;;;;;9.35;3.80;;;17.30;99.90;;;;;;5013328;28;20060;-70
2022/05/01 11:32:44;;;;;;;14.05;4.13;;;17.30;99.90;;;;;;5017987;28;20024;-69
2022/05/01 11:35:12;;;;;;;9.52;3.35;;;17.30;99.90;;;;;;5008007;28;20381;-71
2022/05/01 11:38:17;;;;;;;9.18;3.60;;;17.30;99.90;;;;;;5015008;28;20029;-70
2022/05/01 11:40:56;;;;;;;12.57;3.63;;;17.20;99.90;;;;;;5014146;28;20112;-69
2022/05/01 11:43:24;;;;;;;12.80;3.88;;;17.20;99.90;;;;;;5021569;28;20018;-69
2022/05/01 11:45:52;;;;;;;9.30;3.28;;;17.20;99.90;;;;;;5012551;28;20088;-69
2022/05/01 11:48:20;;;;;;;12.75;4.25;;;17.20;99.90;;;;;;5015919;28;20018;-69
2022/05/01 11:50:51;;;;;;;12.35;3.22;;;17.10;99.90;;;;;;5015030;28;20026;-69
2022/05/01 11:53:20;;;;;;;12.73;3.55;;;17.20;99.90;;;;;;5015786;28;20030;-69
2022/05/01 12:04:33;;;;;;;14.27;5.05;;;17.10;99.90;;;;;;5033099;28;20028;-69
2022/05/01 12:07:09;;;;;;;13.98;4.85;;;17.10;99.90;;;;;;5034430;28;20028;-69
2022/05/01 12:09:38;;;;;;;13.23;4.30;;;17.10;99.90;;;;;;5034673;28;20017;-69
2022/05/01 12:12:13;;;;;;;14.05;4.28;;;17.10;99.90;;;;;;5036048;28;20405;-70
2022/05/01 12:14:41;;;;;;;12.02;4.30;;;17.00;99.90;;;;;;5038304;28;20037;-69
2022/05/01 12:17:15;;;;;;;12.48;4.32;;;17.00;99.90;;;;;;5039995;28;20018;-69
2022/05/01 12:19:46;;;;;;;11.75;4.35;;;17.10;99.90;;;;;;5035121;28;20025;-69
2022/05/01 12:22:25;;;;;;;10.15;3.65;;;17.10;99.90;;;;;;5040403;28;20075;-69
2022/05/01 12:24:55;;;;;;;10.35;3.58;;;17.10;99.90;;;;;;5033991;28;20402;-69
2022/05/01 12:27:30;;;;;;;11.27;4.10;;;17.10;99.90;;;;;;5039207;28;20024;-69
2022/05/01 12:29:59;;;;;;;15.48;4.15;;;17.10;99.90;;;;;;5034588;28;20098;-69
2022/05/01 12:32:28;;;;;;;12.73;4.05;;;17.10;99.90;;;;;;5015219;28;20026;-69
2022/05/01 12:34:57;;;;;;;11.40;4.15;;;17.00;99.90;;;;;;5041189;28;20044;-69
2022/05/01 12:37:34;;;;;;;15.27;4.00;;;17.00;99.90;;;;;;5040577;28;20107;-69
2022/05/01 12:40:10;;;;;;;15.98;4.35;;;16.90;99.90;;;;;;5043073;28;20021;-69
2022/05/01 12:45:46;;;;;;;12.50;4.85;;;16.90;99.90;;;;;;5034230;28;20079;-69
2022/05/01 12:48:15;;;;;;;7.75;3.15;;;16.90;99.90;;;;;;5031769;28;20038;-69
2022/05/01 12:50:45;;;;;;;13.27;4.25;;;16.80;99.90;;;;;;5039535;28;20061;-69
2022/05/01 12:53:31;;;;;;;13.27;4.40;;;16.80;99.90;;;;;;5016958;28;20045;-69
2022/05/01 12:56:02;;;;;;;15.75;4.13;;;16.80;99.90;;;;;;5034055;28;20078;-69
2022/05/01 12:58:37;;;;;;;15.63;4.57;;;16.80;99.90;;;;;;5033679;28;20079;-69
2022/05/01 13:01:08;;;;;;;16.13;4.38;;;16.80;99.90;;;;;;5033702;28;20104;-69
2022/05/01 13:03:41;;;;;;;11.57;4.10;;;16.70;99.90;;;;;;5039778;28;20024;-69
2022/05/01 13:06:16;;;;;;;13.10;4.38;;;16.60;99.90;;;;;;5040624;28;20058;-68
2022/05/01 13:08:53;;;;;;;15.00;5.47;;;16.60;99.90;;;;;;5033676;28;20083;-69
2022/05/01 13:11:30;;;;;;;12.30;4.70;;;16.50;99.90;;;;;;5034235;28;20029;-69
2022/05/01 13:14:08;;;;;;;11.30;4.00;;;16.50;99.90;;;;;;5036624;28;20021;-68
2022/05/01 13:16:35;;;;;;;11.35;4.47;;;16.40;99.90;;;;;;5033806;28;20022;-69
2022/05/01 13:19:15;;;;;;;12.43;4.50;;;16.20;99.90;;;;;;5038927;28;20029;-68
2022/05/01 13:21:45;;;;;;;13.40;4.30;;;16.20;99.90;;;;;;5051801;28;20481;-70
2022/05/01 13:24:23;;;;;;;9.88;4.18;;;16.20;99.90;;;;;;5015946;28;20017;-68
2022/05/01 13:26:53;;;;;;;18.65;4.80;;;16.20;99.90;;;;;;5029070;28;20464;-69
2022/05/01 13:29:21;;;;;;;14.75;4.85;;;16.30;99.90;;;;;;5020568;28;20488;-69
2022/05/01 13:31:49;;;;;;;12.95;4.47;;;16.30;99.90;;;;;;5051536;28;20032;-69
2022/05/01 13:34:18;;;;;;;14.90;4.70;;;16.20;99.90;;;;;;5037170;28;20033;-69
2022/05/01 13:36:46;;;;;;;16.15;5.35;;;16.20;99.90;;;;;;5036944;28;20040;-69
2022/05/01 13:39:13;;;;;;;20.98;5.65;;;16.10;99.90;;;;;;5032159;28;20034;-67